createdAt,value
2022-10-17T00:00:32.652Z,14.47
2022-10-17T00:01:32.656Z,14.47
2022-10-17T00:02:32.973Z,14.46
2022-10-17T00:03:32.585Z,14.46
2022-10-17T00:05:32.633Z,14.45
2022-10-17T00:06:32.585Z,14.48
2022-10-17T00:07:32.543Z,14.52
2022-10-17T00:08:32.553Z,14.57
2022-10-17T00:09:32.833Z,14.63
2022-10-17T00:10:33.214Z,14.69
2022-10-17T00:11:32.497Z,14.69
2022-10-17T00:12:32.546Z,14.67
2022-10-17T00:14:32.486Z,14.68
2022-10-17T00:15:32.423Z,14.73
2022-10-17T00:16:32.415Z,14.76
2022-10-17T00:17:32.444Z,14.75
2022-10-17T00:18:32.528Z,14.70
2022-10-17T00:19:32.395Z,14.66
2022-10-17T00:20:32.667Z,14.63
2022-10-17T00:21:32.351Z,14.60
2022-10-17T00:22:32.371Z,14.60
2022-10-17T00:23:32.695Z,14.59
2022-10-17T00:24:32.361Z,14.58
2022-10-17T00:25:32.277Z,14.58
2022-10-17T00:26:32.296Z,14.57
2022-10-17T00:27:32.266Z,14.57
2022-10-17T00:28:32.266Z,14.56
2022-10-17T00:29:32.344Z,14.53
2022-10-17T00:30:32.576Z,14.50
2022-10-17T00:31:32.233Z,14.50
2022-10-17T00:32:36.475Z,14.48
2022-10-17T00:33:32.225Z,14.46
2022-10-17T00:34:32.225Z,14.45
2022-10-17T00:35:32.474Z,14.44
2022-10-17T00:36:32.204Z,14.44
2022-10-17T00:37:32.121Z,14.43
2022-10-17T00:38:32.162Z,14.40
2022-10-17T00:39:32.277Z,14.36
2022-10-17T00:40:32.415Z,14.33
2022-10-17T00:41:32.081Z,14.33
2022-10-17T00:42:32.068Z,14.35
2022-10-17T00:43:32.076Z,14.36
2022-10-17T00:44:32.157Z,14.38
2022-10-17T00:45:32.074Z,14.38
2022-10-17T00:46:32.017Z,14.38
2022-10-17T00:47:32.045Z,14.38
2022-10-17T00:48:32.116Z,14.38
2022-10-17T00:49:32.871Z,14.37
2022-10-17T00:50:32.060Z,14.37
2022-10-17T00:51:31.971Z,14.35
2022-10-17T00:52:33.647Z,14.34
2022-10-17T00:53:32.196Z,14.32
2022-10-17T00:54:32.286Z,14.31
2022-10-17T00:55:31.906Z,14.32
2022-10-17T00:56:31.963Z,14.34
2022-10-17T00:57:32.138Z,14.33
2022-10-17T00:58:31.856Z,14.31
2022-10-17T00:59:32.752Z,14.30
2022-10-17T01:00:31.966Z,14.29
2022-10-17T01:01:31.990Z,14.28
2022-10-17T01:02:36.146Z,14.28
2022-10-17T01:03:31.886Z,14.29
2022-10-17T01:04:31.786Z,14.29
2022-10-17T01:05:31.765Z,14.28
2022-10-17T01:06:31.853Z,14.28
2022-10-17T01:07:34.694Z,14.25
2022-10-17T01:08:32.770Z,14.23
2022-10-17T01:09:31.758Z,14.24
2022-10-17T01:10:31.720Z,14.24
2022-10-17T01:11:31.817Z,14.22
2022-10-17T01:12:35.962Z,14.22
2022-10-17T01:13:31.659Z,14.24
2022-10-17T01:14:31.655Z,14.26
2022-10-17T01:15:32.478Z,14.27
2022-10-17T01:16:31.667Z,14.27
2022-10-17T01:17:31.918Z,14.27
2022-10-17T01:18:31.587Z,14.27
2022-10-17T01:19:36.568Z,14.28
2022-10-17T01:20:31.903Z,14.25
2022-10-17T01:21:31.632Z,14.24
2022-10-17T01:22:35.510Z,14.25
2022-10-17T01:23:31.634Z,14.31
2022-10-17T01:24:31.539Z,14.37
2022-10-17T01:25:31.548Z,14.39
2022-10-17T01:26:31.658Z,14.37
2022-10-17T01:27:31.506Z,14.34
2022-10-17T01:28:31.591Z,14.31
2022-10-17T01:29:31.764Z,14.31
2022-10-17T01:30:31.411Z,14.28
2022-10-17T01:31:31.486Z,14.26
2022-10-17T01:32:31.427Z,14.21
2022-10-17T01:33:35.468Z,14.17
2022-10-17T01:34:31.427Z,14.16
2022-10-17T01:35:31.370Z,14.18
2022-10-17T01:36:31.338Z,14.19
2022-10-17T01:37:31.375Z,14.18
2022-10-17T01:38:31.428Z,14.16
2022-10-17T01:39:33.392Z,14.14
2022-10-17T01:40:35.325Z,14.14
2022-10-17T01:41:31.290Z,14.12
2022-10-17T01:42:31.552Z,14.10
2022-10-17T01:43:31.304Z,14.08
2022-10-17T01:44:31.268Z,14.07
2022-10-17T01:45:31.223Z,14.05
2022-10-17T01:46:31.240Z,14.01
2022-10-17T01:47:31.377Z,13.98
2022-10-17T01:48:31.618Z,13.95
2022-10-17T01:49:31.176Z,13.94
2022-10-17T01:50:31.190Z,13.94
2022-10-17T01:51:33.489Z,13.91
2022-10-17T01:52:31.166Z,13.88
2022-10-17T01:53:31.167Z,13.85
2022-10-17T01:54:31.110Z,13.82
2022-10-17T01:55:31.159Z,13.80
2022-10-17T01:56:31.159Z,13.75
2022-10-17T01:57:31.343Z,13.72
2022-10-17T01:58:31.070Z,13.70
2022-10-17T01:59:31.023Z,13.71
2022-10-17T02:00:31.021Z,13.71
2022-10-17T02:01:31.108Z,13.69
2022-10-17T02:02:31.078Z,13.71
2022-10-17T02:03:31.011Z,13.71
2022-10-17T02:04:30.992Z,13.69
2022-10-17T02:05:31.198Z,13.71
2022-10-17T02:06:30.960Z,13.73
2022-10-17T02:07:31.224Z,13.74
2022-10-17T02:08:30.966Z,13.73
2022-10-17T02:09:30.956Z,13.71
2022-10-17T02:10:30.907Z,13.68
2022-10-17T02:11:30.887Z,13.65
2022-10-17T02:12:30.900Z,13.62
2022-10-17T02:13:30.870Z,13.60
2022-10-17T02:14:30.902Z,13.57
2022-10-17T02:15:30.888Z,13.56
2022-10-17T02:16:30.832Z,13.57
2022-10-17T02:17:31.118Z,13.62
2022-10-17T02:18:30.790Z,13.66
2022-10-17T02:19:30.811Z,13.68
2022-10-17T02:20:30.850Z,13.69
2022-10-17T02:21:30.783Z,13.67
2022-10-17T02:22:30.991Z,13.67
2022-10-17T02:23:30.770Z,13.65
2022-10-17T02:24:30.743Z,13.65
2022-10-17T02:25:30.739Z,13.64
2022-10-17T02:26:31.149Z,13.67
2022-10-17T02:27:31.034Z,13.70
2022-10-17T02:28:31.522Z,13.73
2022-10-17T02:29:30.943Z,13.75
2022-10-17T02:30:30.688Z,13.76
2022-10-17T02:31:30.881Z,13.74
2022-10-17T02:32:30.673Z,13.70
2022-10-17T02:33:30.671Z,13.70
2022-10-17T02:34:30.578Z,13.70
2022-10-17T02:35:30.573Z,13.70
2022-10-17T02:36:30.594Z,13.71
2022-10-17T02:37:31.110Z,13.71
2022-10-17T02:38:30.592Z,13.69
2022-10-17T02:39:30.542Z,13.65
2022-10-17T02:40:30.524Z,13.60
2022-10-17T02:41:30.565Z,13.59
2022-10-17T02:42:31.075Z,13.59
2022-10-17T02:43:30.476Z,13.61
2022-10-17T02:44:30.542Z,13.62
2022-10-17T02:45:34.711Z,13.60
2022-10-17T02:46:30.463Z,13.56
2022-10-17T02:47:30.433Z,13.56
2022-10-17T02:48:30.442Z,13.56
2022-10-17T02:49:30.381Z,13.57
2022-10-17T02:50:30.429Z,13.57
2022-10-17T02:51:30.573Z,13.54
2022-10-17T02:52:30.760Z,13.52
2022-10-17T02:53:30.383Z,13.49
2022-10-17T02:54:30.312Z,13.46
2022-10-17T02:55:30.312Z,13.49
2022-10-17T02:56:30.305Z,13.54
2022-10-17T02:57:30.319Z,13.58
2022-10-17T02:58:30.266Z,13.57
2022-10-17T02:59:30.349Z,13.57
2022-10-17T03:00:30.242Z,13.56
2022-10-17T03:01:30.301Z,13.55
2022-10-17T03:02:30.479Z,13.54
2022-10-17T03:03:30.236Z,13.53
2022-10-17T03:04:34.421Z,13.50
2022-10-17T03:05:30.223Z,13.47
2022-10-17T03:06:30.232Z,13.46
2022-10-17T03:07:30.144Z,13.43
2022-10-17T03:08:30.197Z,13.46
2022-10-17T03:09:30.139Z,13.53
2022-10-17T03:10:30.173Z,13.58
2022-10-17T03:11:30.140Z,13.59
2022-10-17T03:12:30.569Z,13.57
2022-10-17T03:13:30.134Z,13.56
2022-10-17T03:14:30.382Z,13.55
2022-10-17T03:15:30.070Z,13.54
2022-10-17T03:16:30.072Z,13.53
2022-10-17T03:17:30.053Z,13.54
2022-10-17T03:18:30.027Z,13.55
2022-10-17T03:19:29.990Z,13.55
2022-10-17T03:20:30.009Z,13.54
2022-10-17T03:21:30.154Z,13.52
2022-10-17T03:22:30.240Z,13.52
2022-10-17T03:23:29.965Z,13.54
2022-10-17T03:24:29.984Z,13.54
2022-10-17T03:25:30.166Z,13.55
2022-10-17T03:26:29.954Z,13.55
2022-10-17T03:27:30.135Z,13.53
2022-10-17T03:28:29.962Z,13.50
2022-10-17T03:29:29.896Z,13.48
2022-10-17T03:30:29.847Z,13.48
2022-10-17T03:31:29.872Z,13.49
2022-10-17T03:32:29.872Z,13.52
2022-10-17T03:33:29.825Z,13.55
2022-10-17T03:34:29.814Z,13.58
2022-10-17T03:35:29.823Z,13.57
2022-10-17T03:36:29.765Z,13.55
2022-10-17T03:37:30.084Z,13.51
2022-10-17T03:38:29.783Z,13.50
2022-10-17T03:39:29.750Z,13.44
2022-10-17T03:40:29.746Z,13.38
2022-10-17T03:41:29.724Z,13.38
2022-10-17T03:42:29.714Z,13.43
2022-10-17T03:43:29.736Z,13.47
2022-10-17T03:44:29.713Z,13.47
2022-10-17T03:45:29.691Z,13.46
2022-10-17T03:46:29.647Z,13.41
2022-10-17T03:47:29.875Z,13.34
2022-10-17T03:48:29.644Z,13.33
2022-10-17T03:49:29.604Z,13.31
2022-10-17T03:50:29.997Z,13.32
2022-10-17T03:51:29.612Z,13.32
2022-10-17T03:52:29.594Z,13.33
2022-10-17T03:53:29.574Z,13.32
2022-10-17T03:54:29.545Z,13.31
2022-10-17T03:55:29.574Z,13.30
2022-10-17T03:56:29.534Z,13.26
2022-10-17T03:57:29.696Z,13.24
2022-10-17T03:58:29.576Z,13.24
2022-10-17T03:59:29.484Z,13.27
2022-10-17T04:00:29.464Z,13.27
2022-10-17T04:01:29.482Z,13.29
2022-10-17T04:02:29.725Z,13.26
2022-10-17T04:03:29.445Z,13.29
2022-10-17T04:04:29.426Z,13.30
2022-10-17T04:05:29.395Z,13.31
2022-10-17T04:06:29.401Z,13.32
2022-10-17T04:07:29.426Z,13.33
2022-10-17T04:08:29.408Z,13.34
2022-10-17T04:09:29.385Z,13.33
2022-10-17T04:10:29.392Z,13.31
2022-10-17T04:11:29.339Z,13.29
2022-10-17T04:12:33.523Z,13.26
2022-10-17T04:13:29.285Z,13.27
2022-10-17T04:14:29.516Z,13.28
2022-10-17T04:15:29.304Z,13.28
2022-10-17T04:16:29.356Z,13.27
2022-10-17T04:17:29.245Z,13.24
2022-10-17T04:18:29.211Z,13.22
2022-10-17T04:19:29.256Z,13.21
2022-10-17T04:20:29.180Z,13.21
2022-10-17T04:21:29.156Z,13.22
2022-10-17T04:22:29.560Z,13.25
2022-10-17T04:23:29.197Z,13.31
2022-10-17T04:24:29.106Z,13.39
2022-10-17T04:25:32.216Z,13.44
2022-10-17T04:26:30.095Z,13.47
2022-10-17T04:27:29.057Z,13.51
2022-10-17T04:28:29.188Z,13.57
2022-10-17T04:29:29.035Z,13.57
2022-10-17T04:30:29.004Z,13.54
2022-10-17T04:31:29.005Z,13.48
2022-10-17T04:32:29.288Z,13.46
2022-10-17T04:33:28.981Z,13.44
2022-10-17T04:34:28.983Z,13.39
2022-10-17T04:35:28.956Z,13.31
2022-10-17T04:36:29.605Z,13.25
2022-10-17T04:37:29.734Z,13.23
2022-10-17T04:38:28.938Z,13.25
2022-10-17T04:39:28.906Z,13.29
2022-10-17T04:40:28.889Z,13.27
2022-10-17T04:41:28.896Z,13.25
2022-10-17T04:42:29.150Z,13.26
2022-10-17T04:43:28.864Z,13.24
2022-10-17T04:44:28.915Z,13.20
2022-10-17T04:45:28.818Z,13.16
2022-10-17T04:46:28.808Z,13.17
2022-10-17T04:47:28.798Z,13.18
2022-10-17T04:48:28.779Z,13.20
2022-10-17T04:49:28.865Z,13.23
2022-10-17T04:50:28.778Z,13.21
2022-10-17T04:51:28.754Z,13.17
2022-10-17T04:52:28.920Z,13.24
2022-10-17T04:53:28.719Z,13.29
2022-10-17T04:54:28.718Z,13.33
2022-10-17T04:55:28.745Z,13.38
2022-10-17T04:56:28.738Z,13.40
2022-10-17T04:57:28.689Z,13.40
2022-10-17T04:58:28.658Z,13.39
2022-10-17T04:59:28.675Z,13.35
2022-10-17T05:00:28.689Z,13.25
2022-10-17T05:01:28.707Z,13.19
2022-10-17T05:02:28.824Z,13.14
2022-10-17T05:03:28.589Z,13.07
2022-10-17T05:04:28.589Z,13.03
2022-10-17T05:05:29.276Z,13.01
2022-10-17T05:06:28.608Z,12.98
2022-10-17T05:07:28.567Z,12.94
2022-10-17T05:08:28.549Z,12.88
2022-10-17T05:09:28.501Z,12.86
2022-10-17T05:10:28.551Z,12.85
2022-10-17T05:11:28.580Z,12.82
2022-10-17T05:12:28.777Z,12.78
2022-10-17T05:13:28.529Z,12.75
2022-10-17T05:14:28.507Z,12.75
2022-10-17T05:15:28.475Z,12.72
2022-10-17T05:16:28.581Z,12.71
2022-10-17T05:17:28.447Z,12.69
2022-10-17T05:18:28.391Z,12.68
2022-10-17T05:19:28.398Z,12.66
2022-10-17T05:20:28.370Z,12.65
2022-10-17T05:21:28.673Z,12.67
2022-10-17T05:22:28.585Z,12.69
2022-10-17T05:23:28.449Z,12.70
2022-10-17T05:24:28.303Z,12.70
2022-10-17T05:25:28.346Z,12.71
2022-10-17T05:26:28.340Z,12.73
2022-10-17T05:27:28.382Z,12.71
2022-10-17T05:28:32.388Z,12.69
2022-10-17T05:29:28.279Z,12.68
2022-10-17T05:30:28.468Z,12.67
2022-10-17T05:31:28.218Z,12.65
2022-10-17T05:32:28.493Z,12.66
2022-10-17T05:33:28.234Z,12.66
2022-10-17T05:34:28.223Z,12.65
2022-10-17T05:35:28.158Z,12.63
2022-10-17T05:36:28.139Z,12.63
2022-10-17T05:37:28.152Z,12.66
2022-10-17T05:38:32.179Z,12.70
2022-10-17T05:39:28.132Z,12.73
2022-10-17T05:40:28.842Z,12.76
2022-10-17T05:41:28.069Z,12.75
2022-10-17T05:42:29.124Z,12.73
2022-10-17T05:43:28.076Z,12.72
2022-10-17T05:44:29.880Z,12.72
2022-10-17T05:45:28.015Z,12.71
2022-10-17T05:46:28.379Z,12.69
2022-10-17T05:47:28.409Z,12.68
2022-10-17T05:48:28.051Z,12.67
2022-10-17T05:49:46.049Z,12.68
2022-10-17T05:50:29.051Z,12.67
2022-10-17T05:51:28.012Z,12.63
2022-10-17T05:52:28.394Z,12.60
2022-10-17T05:53:28.652Z,12.59
2022-10-17T05:54:27.960Z,12.56
2022-10-17T05:55:27.940Z,12.58
2022-10-17T05:56:28.003Z,12.62
2022-10-17T05:57:27.910Z,12.66
2022-10-17T05:59:28.880Z,12.65
2022-10-17T06:00:27.830Z,12.65
2022-10-17T06:01:28.579Z,12.63
2022-10-17T06:02:28.514Z,12.62
2022-10-17T06:03:28.659Z,12.64
2022-10-17T06:04:28.248Z,12.67
2022-10-17T06:05:28.239Z,12.67
2022-10-17T06:06:28.306Z,12.66
2022-10-17T06:07:27.750Z,12.67
2022-10-17T06:08:27.801Z,12.69
2022-10-17T06:09:27.700Z,12.74
2022-10-17T06:10:27.833Z,12.78
2022-10-17T06:11:27.663Z,12.86
2022-10-17T06:12:27.975Z,13.01
2022-10-17T06:13:27.659Z,13.10
2022-10-17T06:14:27.740Z,13.12
2022-10-17T06:15:27.665Z,13.12
2022-10-17T06:16:29.262Z,13.12
2022-10-17T06:17:27.623Z,13.13
2022-10-17T06:18:27.601Z,13.16
2022-10-17T06:19:27.592Z,13.19
2022-10-17T06:20:27.681Z,13.22
2022-10-17T06:21:27.565Z,13.24
2022-10-17T06:22:27.881Z,13.30
2022-10-17T06:23:27.511Z,13.38
2022-10-17T06:24:27.509Z,13.44
2022-10-17T06:25:27.477Z,13.51
2022-10-17T06:26:27.492Z,13.57
2022-10-17T06:27:27.484Z,13.59
2022-10-17T06:28:27.484Z,13.59
2022-10-17T06:29:27.432Z,13.54
2022-10-17T06:30:27.455Z,13.49
2022-10-17T06:31:27.411Z,13.47
2022-10-17T06:32:27.742Z,13.48
2022-10-17T06:33:27.370Z,13.50
2022-10-17T06:34:27.419Z,13.53
2022-10-17T06:35:27.393Z,13.53
2022-10-17T06:36:27.449Z,13.52
2022-10-17T06:37:28.386Z,13.53
2022-10-17T06:38:27.351Z,13.50
2022-10-17T06:39:27.343Z,13.47
2022-10-17T06:40:27.402Z,13.45
2022-10-17T06:41:27.292Z,13.42
2022-10-17T06:42:27.292Z,13.42
2022-10-17T06:43:27.909Z,13.42
2022-10-17T06:44:27.271Z,13.42
2022-10-17T06:45:27.231Z,13.39
2022-10-17T06:46:27.213Z,13.40
2022-10-17T06:47:27.548Z,13.42
2022-10-17T06:48:27.194Z,13.44
2022-10-17T06:49:27.182Z,13.46
2022-10-17T06:50:27.219Z,13.47
2022-10-17T06:51:27.152Z,13.51
2022-10-17T06:52:27.271Z,13.57
2022-10-17T06:53:27.144Z,13.66
2022-10-17T06:54:27.120Z,13.71
2022-10-17T06:55:27.079Z,13.75
2022-10-17T06:56:27.083Z,13.79
2022-10-17T06:57:27.438Z,13.83
2022-10-17T06:58:27.065Z,13.87
2022-10-17T06:59:27.079Z,13.91
2022-10-17T07:00:27.023Z,13.96
2022-10-17T07:01:27.022Z,14.00
2022-10-17T07:02:27.419Z,14.03
2022-10-17T07:03:26.962Z,14.02
2022-10-17T07:04:27.010Z,14.02
2022-10-17T07:05:26.944Z,14.04
2022-10-17T07:06:26.966Z,14.07
2022-10-17T07:07:27.199Z,14.10
2022-10-17T07:08:26.944Z,14.15
2022-10-17T07:09:26.931Z,14.21
2022-10-17T07:10:27.198Z,14.29
2022-10-17T07:11:26.883Z,14.39
2022-10-17T07:12:26.874Z,14.48
2022-10-17T07:13:26.893Z,14.55
2022-10-17T07:14:26.834Z,14.62
2022-10-17T07:15:26.895Z,14.68
2022-10-17T07:16:26.834Z,14.71
2022-10-17T07:17:27.054Z,14.72
2022-10-17T07:18:26.774Z,14.71
2022-10-17T07:19:26.761Z,14.72
2022-10-17T07:20:26.806Z,14.73
2022-10-17T07:21:26.736Z,14.73
2022-10-17T07:22:26.746Z,14.74
2022-10-17T07:23:26.743Z,14.78
2022-10-17T07:24:26.730Z,14.80
2022-10-17T07:25:26.707Z,14.84
2022-10-17T07:26:26.708Z,14.85
2022-10-17T07:27:26.890Z,14.85
2022-10-17T07:28:26.718Z,14.87
2022-10-17T07:29:26.654Z,14.90
2022-10-17T07:30:26.626Z,14.98
2022-10-17T07:31:26.644Z,15.08
2022-10-17T07:32:26.637Z,15.19
2022-10-17T07:33:26.604Z,15.25
2022-10-17T07:34:26.565Z,15.28
2022-10-17T07:35:26.586Z,15.32
2022-10-17T07:36:26.554Z,15.38
2022-10-17T07:37:27.227Z,15.41
2022-10-17T07:38:26.645Z,15.45
2022-10-17T07:39:26.789Z,15.50
2022-10-17T07:40:30.456Z,15.57
2022-10-17T07:41:26.496Z,15.65
2022-10-17T07:42:26.534Z,15.73
2022-10-17T07:43:26.445Z,15.78
2022-10-17T07:44:27.015Z,15.83
2022-10-17T07:45:26.513Z,15.85
2022-10-17T07:46:26.545Z,15.84
2022-10-17T07:47:26.716Z,15.79
2022-10-17T07:48:26.388Z,15.77
2022-10-17T07:49:26.384Z,15.73
2022-10-17T07:50:26.382Z,15.69
2022-10-17T07:51:26.376Z,15.66
2022-10-17T07:52:26.941Z,15.66
2022-10-17T07:53:26.654Z,15.70
2022-10-17T07:54:26.766Z,15.72
2022-10-17T07:55:26.486Z,15.73
2022-10-17T07:56:26.563Z,15.78
2022-10-17T07:57:26.636Z,15.82
2022-10-17T07:58:26.387Z,15.86
2022-10-17T07:59:26.351Z,15.84
2022-10-17T08:00:26.269Z,15.80
2022-10-17T08:01:26.265Z,15.77
2022-10-17T08:02:26.358Z,15.78
2022-10-17T08:03:26.220Z,15.88
2022-10-17T08:04:26.187Z,15.98
2022-10-17T08:05:26.194Z,16.12
2022-10-17T08:06:26.264Z,16.29
2022-10-17T08:07:29.249Z,16.42
2022-10-17T08:08:26.209Z,16.50
2022-10-17T08:09:26.098Z,16.57
2022-10-17T08:10:26.182Z,16.58
2022-10-17T08:11:26.167Z,16.56
2022-10-17T08:12:26.422Z,16.51
2022-10-17T08:13:26.087Z,16.48
2022-10-17T08:14:26.088Z,16.43
2022-10-17T08:15:29.384Z,16.38
2022-10-17T08:16:27.050Z,16.34
2022-10-17T08:17:26.017Z,16.40
2022-10-17T08:18:26.008Z,16.49
2022-10-17T08:19:26.001Z,16.60
2022-10-17T08:20:26.018Z,16.70
2022-10-17T08:21:25.959Z,16.77
2022-10-17T08:22:25.942Z,16.84
2022-10-17T08:23:25.908Z,16.88
2022-10-17T08:24:26.037Z,16.88
2022-10-17T08:25:25.956Z,16.85
2022-10-17T08:26:25.925Z,16.79
2022-10-17T08:27:25.900Z,16.73
2022-10-17T08:28:25.936Z,16.68
2022-10-17T08:29:25.879Z,16.64
2022-10-17T08:30:25.847Z,16.58
2022-10-17T08:31:25.836Z,16.55
2022-10-17T08:32:25.879Z,16.51
2022-10-17T08:33:25.933Z,16.51
2022-10-17T08:34:25.825Z,16.52
2022-10-17T08:35:25.830Z,16.56
2022-10-17T08:36:25.769Z,16.63
2022-10-17T08:37:25.791Z,16.69
2022-10-17T08:38:27.540Z,16.73
2022-10-17T08:39:25.718Z,16.77
2022-10-17T08:40:25.690Z,16.76
2022-10-17T08:41:25.727Z,16.73
2022-10-17T08:42:25.679Z,16.71
2022-10-17T08:43:25.666Z,16.70
2022-10-17T08:44:25.651Z,16.72
2022-10-17T08:45:25.676Z,16.75
2022-10-17T08:46:25.697Z,16.78
2022-10-17T08:47:25.628Z,16.84
2022-10-17T08:48:25.608Z,16.88
2022-10-17T08:49:25.630Z,16.90
2022-10-17T08:50:25.584Z,16.92
2022-10-17T08:51:25.568Z,16.99
2022-10-17T08:52:25.577Z,17.05
2022-10-17T08:53:25.532Z,17.09
2022-10-17T08:54:25.530Z,17.11
2022-10-17T08:55:25.522Z,17.11
2022-10-17T08:56:44.134Z,17.11
2022-10-17T08:57:26.601Z,17.10
2022-10-17T08:58:25.450Z,17.10
2022-10-17T08:59:25.461Z,17.12
2022-10-17T09:00:25.441Z,17.13
2022-10-17T09:01:25.407Z,17.14
2022-10-17T09:02:25.429Z,17.16
2022-10-17T09:03:25.498Z,17.19
2022-10-17T09:04:25.461Z,17.21
2022-10-17T09:05:26.590Z,17.23
2022-10-17T09:06:25.341Z,17.25
2022-10-17T09:07:25.330Z,17.27
2022-10-17T09:08:25.340Z,17.30
2022-10-17T09:09:25.325Z,17.32
2022-10-17T09:10:25.301Z,17.35
2022-10-17T09:11:25.281Z,17.39
2022-10-17T09:12:25.251Z,17.43
2022-10-17T09:13:25.331Z,17.49
2022-10-17T09:14:25.301Z,17.59
2022-10-17T09:15:25.260Z,17.69
2022-10-17T09:16:25.233Z,17.76
2022-10-17T09:17:25.276Z,17.79
2022-10-17T09:18:25.225Z,17.80
2022-10-17T09:19:25.202Z,17.80
2022-10-17T09:20:25.233Z,17.80
2022-10-17T09:21:25.201Z,17.78
2022-10-17T09:22:25.132Z,17.77
2022-10-17T09:23:25.134Z,17.77
2022-10-17T09:24:25.135Z,17.77
2022-10-17T09:25:25.104Z,17.79
2022-10-17T09:26:25.101Z,17.80
2022-10-17T09:27:25.150Z,17.82
2022-10-17T09:28:25.097Z,17.85
2022-10-17T09:29:25.066Z,17.90
2022-10-17T09:30:44.296Z,17.97
2022-10-17T09:31:26.052Z,18.02
2022-10-17T09:32:25.017Z,18.07
2022-10-17T09:33:35.511Z,18.10
2022-10-17T09:34:27.465Z,18.14
2022-10-17T09:35:25.064Z,18.21
2022-10-17T09:36:24.994Z,18.26
2022-10-17T09:37:24.984Z,18.31
2022-10-17T09:38:25.012Z,18.33
2022-10-17T09:39:24.938Z,18.35
2022-10-17T09:40:24.886Z,18.38
2022-10-17T09:41:45.545Z,18.41
2022-10-17T09:42:25.947Z,18.45
2022-10-17T09:43:24.869Z,18.46
2022-10-17T09:44:24.872Z,18.47
2022-10-17T09:45:24.837Z,18.50
2022-10-17T09:46:24.823Z,18.54
2022-10-17T09:47:24.815Z,18.58
2022-10-17T09:48:24.795Z,18.63
2022-10-17T09:49:24.812Z,18.68
2022-10-17T09:50:24.755Z,18.72
2022-10-17T09:51:26.100Z,18.75
2022-10-17T09:52:24.724Z,18.78
2022-10-17T09:53:24.729Z,18.80
2022-10-17T09:54:24.745Z,18.81
2022-10-17T09:55:24.684Z,18.82
2022-10-17T09:56:24.688Z,18.82
2022-10-17T09:57:24.656Z,18.81
2022-10-17T09:58:24.639Z,18.84
2022-10-17T09:59:24.637Z,18.86
2022-10-17T10:00:24.757Z,18.89
2022-10-17T10:01:24.741Z,18.92
2022-10-17T10:02:24.607Z,18.96
2022-10-17T10:03:24.581Z,19.01
2022-10-17T10:04:25.844Z,19.06
2022-10-17T10:05:24.545Z,19.09
2022-10-17T10:06:24.607Z,19.10
2022-10-17T10:07:28.963Z,19.14
2022-10-17T10:08:24.521Z,19.19
2022-10-17T10:09:24.582Z,19.23
2022-10-17T10:10:24.468Z,19.30
2022-10-17T10:11:24.456Z,19.34
2022-10-17T10:12:24.483Z,19.37
2022-10-17T10:13:24.446Z,19.37
2022-10-17T10:14:24.425Z,19.37
2022-10-17T10:15:24.448Z,19.41
2022-10-17T10:16:24.408Z,19.43
2022-10-17T10:17:24.436Z,19.46
2022-10-17T10:18:24.479Z,19.47
2022-10-17T10:19:24.358Z,19.52
2022-10-17T10:20:24.372Z,19.56
2022-10-17T10:21:24.329Z,19.58
2022-10-17T10:22:24.339Z,19.60
2022-10-17T10:23:24.323Z,19.64
2022-10-17T10:24:29.636Z,19.65
2022-10-17T10:25:25.316Z,19.69
2022-10-17T10:26:24.300Z,19.73
2022-10-17T10:27:24.297Z,19.78
2022-10-17T10:28:24.320Z,19.82
2022-10-17T10:29:24.238Z,19.83
2022-10-17T10:30:24.250Z,19.81
2022-10-17T10:31:24.229Z,19.79
2022-10-17T10:32:24.200Z,19.84
2022-10-17T10:33:24.486Z,19.91
2022-10-17T10:34:24.160Z,19.95
2022-10-17T10:35:24.169Z,20.02
2022-10-17T10:36:24.247Z,20.06
2022-10-17T10:37:24.160Z,20.06
2022-10-17T10:38:24.131Z,20.03
2022-10-17T10:39:24.102Z,20.02
2022-10-17T10:40:24.092Z,20.06
2022-10-17T10:41:24.092Z,20.12
2022-10-17T10:42:24.132Z,20.16
2022-10-17T10:43:24.043Z,20.17
2022-10-17T10:44:24.032Z,20.17
2022-10-17T10:45:43.284Z,20.19
2022-10-17T10:46:25.015Z,20.18
2022-10-17T10:47:24.014Z,20.19
2022-10-17T10:48:24.003Z,20.19
2022-10-17T10:49:24.020Z,20.23
2022-10-17T10:50:23.962Z,20.27
2022-10-17T10:51:23.943Z,20.32
2022-10-17T10:52:23.923Z,20.37
2022-10-17T10:53:23.964Z,20.45
2022-10-17T10:54:23.956Z,20.50
2022-10-17T10:55:23.941Z,20.54
2022-10-17T10:56:23.894Z,20.58
2022-10-17T10:57:23.885Z,20.57
2022-10-17T10:58:23.895Z,20.53
2022-10-17T10:59:23.864Z,20.49
2022-10-17T11:00:23.877Z,20.48
2022-10-17T11:01:23.851Z,20.50
2022-10-17T11:02:23.793Z,20.57
2022-10-17T11:03:23.798Z,20.61
2022-10-17T11:04:23.784Z,20.64
2022-10-17T11:05:23.746Z,20.63
2022-10-17T11:06:23.775Z,20.66
2022-10-17T11:07:23.743Z,20.73
2022-10-17T11:08:23.735Z,20.77
2022-10-17T11:09:23.725Z,20.79
2022-10-17T11:10:23.751Z,20.83
2022-10-17T11:11:23.758Z,20.86
2022-10-17T11:12:23.713Z,20.96
2022-10-17T11:13:23.668Z,20.99
2022-10-17T11:14:23.646Z,21.00
2022-10-17T11:15:23.678Z,21.04
2022-10-17T11:16:23.630Z,21.07
2022-10-17T11:17:23.619Z,21.10
2022-10-17T11:18:23.608Z,21.15
2022-10-17T11:19:23.566Z,21.18
2022-10-17T11:20:23.578Z,21.20
2022-10-17T11:21:23.593Z,21.18
2022-10-17T11:22:26.590Z,21.17
2022-10-17T11:23:24.560Z,21.19
2022-10-17T11:24:23.519Z,21.20
2022-10-17T11:25:23.491Z,21.18
2022-10-17T11:26:23.500Z,21.14
2022-10-17T11:27:23.497Z,21.11
2022-10-17T11:28:23.526Z,21.10
2022-10-17T11:29:23.477Z,21.14
2022-10-17T11:30:23.421Z,21.23
2022-10-17T11:31:23.418Z,21.35
2022-10-17T11:32:23.431Z,21.46
2022-10-17T11:33:23.403Z,21.56
2022-10-17T11:34:23.410Z,21.63
2022-10-17T11:35:23.412Z,21.66
2022-10-17T11:36:23.364Z,21.68
2022-10-17T11:37:23.605Z,21.67
2022-10-17T11:38:23.332Z,21.62
2022-10-17T11:39:23.318Z,21.58
2022-10-17T11:40:24.485Z,21.51
2022-10-17T11:41:23.322Z,21.50
2022-10-17T11:42:23.292Z,21.47
2022-10-17T11:43:23.272Z,21.46
2022-10-17T11:44:23.232Z,21.50
2022-10-17T11:45:23.274Z,21.56
2022-10-17T11:46:23.303Z,21.54
2022-10-17T11:47:23.243Z,21.52
2022-10-17T11:48:23.195Z,21.57
2022-10-17T11:49:23.230Z,21.66
2022-10-17T11:52:44.080Z,21.84
2022-10-17T11:53:24.204Z,21.94
2022-10-17T11:54:23.128Z,22.00
2022-10-17T11:55:23.091Z,22.03
2022-10-17T11:56:23.094Z,22.04
2022-10-17T11:57:23.058Z,22.06
2022-10-17T11:58:23.112Z,22.06
2022-10-17T11:59:23.082Z,22.08
2022-10-17T12:00:23.048Z,22.11
2022-10-17T12:01:23.269Z,22.17
2022-10-17T12:02:23.025Z,22.20
2022-10-17T12:03:23.046Z,22.18
2022-10-17T12:04:23.347Z,22.15
2022-10-17T12:05:22.976Z,22.21
2022-10-17T12:06:28.510Z,22.24
2022-10-17T12:07:24.099Z,22.25
2022-10-17T12:08:22.944Z,22.27
2022-10-17T12:09:23.286Z,22.31
2022-10-17T12:10:22.967Z,22.31
2022-10-17T12:11:23.585Z,22.28
2022-10-17T12:12:22.895Z,22.26
2022-10-17T12:13:22.847Z,22.27
2022-10-17T12:14:22.863Z,22.26
2022-10-17T12:15:22.937Z,22.27
2022-10-17T12:16:22.908Z,22.26
2022-10-17T12:17:22.818Z,22.23
2022-10-17T12:18:23.048Z,22.20
2022-10-17T12:19:22.776Z,22.24
2022-10-17T12:20:22.768Z,22.29
2022-10-17T12:21:22.770Z,22.33
2022-10-17T12:22:22.781Z,22.37
2022-10-17T12:23:22.745Z,22.43
2022-10-17T12:24:22.737Z,22.48
2022-10-17T12:25:22.742Z,22.50
2022-10-17T12:26:22.680Z,22.47
2022-10-17T12:27:22.700Z,22.42
2022-10-17T12:28:22.724Z,22.36
2022-10-17T12:29:22.648Z,22.30
2022-10-17T12:30:22.709Z,22.21
2022-10-17T12:31:22.629Z,22.14
2022-10-17T12:32:22.610Z,22.14
2022-10-17T12:33:22.677Z,22.19
2022-10-17T12:34:25.420Z,22.28
2022-10-17T12:35:22.567Z,22.35
2022-10-17T12:36:22.813Z,22.48
2022-10-17T12:37:22.831Z,22.57
2022-10-17T12:38:22.532Z,22.68
2022-10-17T12:39:22.512Z,22.79
2022-10-17T12:40:22.533Z,22.90
2022-10-17T12:41:22.490Z,23.01
2022-10-17T12:42:22.482Z,23.02
2022-10-17T12:43:22.463Z,23.03
2022-10-17T12:44:22.443Z,23.07
2022-10-17T12:45:22.441Z,23.07
2022-10-17T12:46:22.469Z,23.03
2022-10-17T12:47:22.423Z,22.98
2022-10-17T12:48:22.457Z,22.93
2022-10-17T12:49:22.414Z,22.90
2022-10-17T12:50:22.370Z,22.83
2022-10-17T12:51:38.107Z,22.73
2022-10-17T12:52:23.382Z,22.61
2022-10-17T12:53:22.342Z,22.48
2022-10-17T12:54:22.324Z,22.44
2022-10-17T12:55:22.314Z,22.32
2022-10-17T12:56:22.345Z,22.26
2022-10-17T12:57:22.287Z,22.27